»·PEaware :: MES990 KASE-KSEA

MES990 :: KASE-KSEA

FLIGHT INFORMATION

Flight Status: Arrived
Operator:
Mesaba Aviation
More flights by this operator :: More flights under this callsign
Pilot: Matthew M. (8235)
Aircraft: BRITISH AERO RJ-85
(RJ85)
More flights by this aircraft type
Origin: KASE Aspen-Pitkin Co/Sardy
United States
Destination: KSEA Seattle-Tacoma Intl
United States
More flights between these airports :: More routes between these airports
Route: +LINDZ9 EKR PIH J20 PDT CHINS4
File this flight plan on PilotEdge
Remarks:
Altitude:
(Current/Filed)
32,000ft
Speed:
(Current/Filed)
410kts
Departed: 24-Nov-20 02:06 PM
Arrived: 24-Nov-20 04:43 PM
Distance/Time
Traveled:
832nm/2:36
Distance/Time
To Go:
Arrived

Flight Plot

Page will automatically refresh every two minutes.

Flight plan parsing failed; only flown route is shown


Map Options




Map Legend


Flown Route
Filed Route
Departure Airport
Arrival Airport
Navaid (VOR, NDB)
Fix

Horizontal Profiles

Position Reports

Time Latitude Longitude Heading Altitude Ground
Speed
24-Nov-20 13:51 39.219389 -106.865027 118 7828ft 0kts
24-Nov-20 13:52 39.219389 -106.865027 118 7828ft 0kts
24-Nov-20 13:53 39.219389 -106.865027 118 7828ft 0kts
24-Nov-20 13:54 39.219389 -106.865027 118 7828ft 0kts
24-Nov-20 13:55 39.219389 -106.865027 118 7828ft 0kts
24-Nov-20 13:56 39.219389 -106.865027 118 7828ft 0kts
24-Nov-20 13:57 39.219389 -106.865027 118 7828ft 0kts
24-Nov-20 13:58 39.219389 -106.865027 118 7828ft 0kts
24-Nov-20 13:59 39.219388 -106.865026 118 7828ft 0kts
24-Nov-20 14:00 39.219003 -106.865122 200 7828ft 5kts
24-Nov-20 14:01 39.218933 -106.865155 200 7828ft 2kts
24-Nov-20 14:02 39.215137 -106.863880 159 7828ft 17kts
24-Nov-20 14:03 39.212213 -106.862464 176 7828ft 2kts
24-Nov-20 14:04 39.212447 -106.863742 341 7828ft 13kts
24-Nov-20 14:05 39.236507 -106.873289 0 8314ft 149kts
24-Nov-20 14:06 39.278259 -106.891777 304 10200ft 183kts
24-Nov-20 14:07 39.290656 -106.969480 282 11645ft 263kts
24-Nov-20 14:08 39.319152 -107.059723 307 14837ft 280kts
24-Nov-20 14:09 39.365569 -107.142735 285 17866ft 297kts
24-Nov-20 14:10 39.363256 -107.252395 262 20552ft 316kts
24-Nov-20 14:11 39.344427 -107.370232 257 21268ft 353kts
24-Nov-20 14:12 39.321284 -107.493779 256 24248ft 338kts
24-Nov-20 14:13 39.317633 -107.607236 303 26627ft 330kts
24-Nov-20 14:14 39.391293 -107.670713 342 28967ft 311kts
24-Nov-20 14:15 39.469592 -107.704938 346 31519ft 286kts
24-Nov-20 14:16 39.548737 -107.736786 348 32084ft 317kts
24-Nov-20 14:17 39.638654 -107.770523 347 32082ft 350kts
24-Nov-20 14:18 39.733247 -107.806645 348 32086ft 355kts
24-Nov-20 14:20 39.828019 -107.842823 348 32095ft 354kts
24-Nov-20 14:21 39.922140 -107.878865 348 32106ft 352kts
24-Nov-20 14:22 40.015952 -107.914960 348 32108ft 351kts
24-Nov-20 14:23 40.096771 -107.991084 320 32109ft 374kts
24-Nov-20 14:24 40.162648 -108.097918 316 32109ft 378kts
24-Nov-20 14:25 40.228468 -108.204829 318 32111ft 376kts
24-Nov-20 14:26 40.295475 -108.310513 317 32113ft 377kts
24-Nov-20 14:27 40.362101 -108.416426 317 32114ft 377kts
24-Nov-20 14:28 40.428657 -108.522557 317 32113ft 377kts
24-Nov-20 14:29 40.495526 -108.629418 317 32111ft 378kts
24-Nov-20 14:30 40.562429 -108.735993 317 32109ft 378kts
24-Nov-20 14:31 40.629504 -108.842686 317 32111ft 378kts
24-Nov-20 14:32 40.696275 -108.950499 317 32110ft 378kts
24-Nov-20 14:33 40.762655 -109.058134 317 32109ft 379kts
24-Nov-20 14:34 40.829229 -109.166591 317 32114ft 379kts
24-Nov-20 14:35 40.895681 -109.274871 317 32113ft 379kts
24-Nov-20 14:36 40.962169 -109.382736 317 32111ft 379kts
24-Nov-20 14:37 41.029091 -109.491187 316 32111ft 380kts
24-Nov-20 14:37 41.084312 -109.582637 316 32109ft 380kts
24-Nov-20 14:39 41.161724 -109.710298 316 32109ft 380kts
24-Nov-20 14:39 41.217149 -109.800867 316 32110ft 381kts
24-Nov-20 14:41 41.294857 -109.928935 315 32120ft 382kts
24-Nov-20 14:41 41.350318 -110.020869 315 32127ft 382kts
24-Nov-20 14:42 41.417491 -110.130945 314 32131ft 382kts
24-Nov-20 14:43 41.484083 -110.241755 314 32137ft 383kts
24-Nov-20 14:44 41.550028 -110.353689 313 32137ft 384kts
24-Nov-20 14:45 41.616092 -110.466072 313 32138ft 384kts
24-Nov-20 14:46 41.682206 -110.578300 313 32138ft 384kts
24-Nov-20 14:47 41.748607 -110.690295 313 32140ft 384kts
24-Nov-20 14:48 41.814608 -110.802398 313 32141ft 384kts
24-Nov-20 14:49 41.880400 -110.915432 312 32143ft 384kts
24-Nov-20 14:50 41.946592 -111.027964 312 32152ft 384kts
24-Nov-20 14:51 42.012502 -111.141249 311 32185ft 384kts
24-Nov-20 14:52 42.079137 -111.254220 311 32200ft 385kts
24-Nov-20 14:53 42.145205 -111.367829 310 32209ft 385kts
24-Nov-20 14:54 42.210429 -111.482584 310 32215ft 386kts
24-Nov-20 14:55 42.275764 -111.597398 310 32218ft 386kts
24-Nov-20 14:56 42.341704 -111.712594 310 32220ft 386kts
24-Nov-20 14:57 42.406727 -111.827741 309 32224ft 386kts
24-Nov-20 14:58 42.471716 -111.943713 309 32237ft 385kts
24-Nov-20 14:59 42.536381 -112.059326 309 32238ft 385kts
24-Nov-20 15:00 42.601430 -112.175487 309 32238ft 385kts
24-Nov-20 15:01 42.666422 -112.291263 309 32236ft 385kts
24-Nov-20 15:02 42.730698 -112.407750 309 32237ft 385kts
24-Nov-20 15:03 42.794851 -112.524492 309 32238ft 384kts
24-Nov-20 15:04 42.858760 -112.641097 309 32238ft 384kts
24-Nov-20 15:05 42.923555 -112.756522 309 32246ft 384kts
24-Nov-20 15:06 42.988984 -112.871824 309 32245ft 383kts
24-Nov-20 15:07 43.054438 -112.987042 309 32241ft 383kts
24-Nov-20 15:08 43.119052 -113.103132 309 32237ft 383kts
24-Nov-20 15:09 43.183468 -113.219176 309 32232ft 383kts
24-Nov-20 15:10 43.247851 -113.335595 309 32230ft 382kts
24-Nov-20 15:11 43.312043 -113.452070 309 32226ft 382kts
24-Nov-20 15:12 43.375982 -113.568414 309 32222ft 381kts
24-Nov-20 15:13 43.439796 -113.684771 309 32218ft 381kts
24-Nov-20 15:14 43.503639 -113.801037 309 32214ft 380kts
24-Nov-20 15:15 43.567653 -113.917815 309 32201ft 380kts
24-Nov-20 15:16 43.630861 -114.034941 308 32201ft 380kts
24-Nov-20 15:17 43.693724 -114.151944 308 32202ft 380kts
24-Nov-20 15:18 43.756580 -114.269418 308 32195ft 379kts
24-Nov-20 15:19 43.819433 -114.387058 308 32185ft 379kts
24-Nov-20 15:20 43.881752 -114.504101 308 32170ft 379kts
24-Nov-20 15:21 43.944682 -114.622086 308 32156ft 378kts
24-Nov-20 15:22 44.007583 -114.739654 308 32147ft 378kts
24-Nov-20 15:23 44.069683 -114.856931 307 32141ft 377kts
24-Nov-20 15:24 44.131546 -114.974325 307 32139ft 376kts
24-Nov-20 15:25 44.193517 -115.091505 307 32138ft 375kts
24-Nov-20 15:26 44.254392 -115.209289 307 32139ft 374kts
24-Nov-20 15:27 44.315492 -115.327086 307 32139ft 373kts
24-Nov-20 15:28 44.376360 -115.444641 307 32140ft 373kts
24-Nov-20 15:29 44.434484 -115.556645 307 32140ft 372kts
24-Nov-20 15:30 44.497494 -115.679669 306 32138ft 372kts
24-Nov-20 15:31 44.557569 -115.797726 306 32138ft 372kts
24-Nov-20 15:32 44.617473 -115.915954 306 32135ft 371kts
24-Nov-20 15:33 44.677284 -116.034507 306 32131ft 371kts
24-Nov-20 15:34 44.737592 -116.152490 306 32129ft 370kts
24-Nov-20 15:35 44.791114 -116.276413 298 32132ft 371kts
24-Nov-20 15:36 44.836821 -116.406897 297 32133ft 371kts
24-Nov-20 15:37 44.882870 -116.537214 297 32136ft 371kts
24-Nov-20 15:38 44.929287 -116.667531 297 32130ft 371kts
24-Nov-20 15:39 44.975066 -116.798240 296 32127ft 371kts
24-Nov-20 15:40 45.020468 -116.928895 296 32112ft 371kts
24-Nov-20 15:41 45.066156 -117.059986 296 32108ft 371kts
24-Nov-20 15:42 45.112007 -117.190447 296 32107ft 370kts
24-Nov-20 15:43 45.157755 -117.321566 295 32111ft 370kts
24-Nov-20 15:44 45.202539 -117.452623 295 32107ft 370kts
24-Nov-20 15:45 45.247716 -117.583701 295 32102ft 370kts
24-Nov-20 15:46 45.293061 -117.715070 295 32083ft 369kts
24-Nov-20 15:47 45.337245 -117.846514 295 32084ft 369kts
24-Nov-20 15:48 45.381784 -117.978378 295 32083ft 369kts
24-Nov-20 15:49 45.426690 -118.109507 294 32069ft 369kts
24-Nov-20 15:50 45.470847 -118.241490 294 32040ft 368kts
24-Nov-20 15:51 45.514695 -118.373399 294 32020ft 368kts
24-Nov-20 15:52 45.558650 -118.505554 293 32018ft 368kts
24-Nov-20 15:53 45.601791 -118.638033 293 32019ft 368kts
24-Nov-20 15:54 45.644885 -118.770608 293 32018ft 368kts
24-Nov-20 15:55 45.688070 -118.903016 295 32018ft 368kts
24-Nov-20 15:56 45.749073 -119.021510 308 32022ft 371kts
24-Nov-20 15:57 45.817651 -119.131899 307 32026ft 371kts
24-Nov-20 15:58 45.884934 -119.244313 306 32028ft 370kts
24-Nov-20 15:59 45.951361 -119.357003 306 32027ft 369kts
24-Nov-20 16:00 46.017985 -119.469513 305 32025ft 369kts
24-Nov-20 16:01 46.084333 -119.582265 305 32023ft 368kts
24-Nov-20 16:02 46.150309 -119.695088 305 32017ft 368kts
24-Nov-20 16:03 46.215619 -119.808689 305 32022ft 368kts
24-Nov-20 16:04 46.280839 -119.922477 304 32022ft 368kts
24-Nov-20 16:05 46.348300 -120.034692 303 32000ft 369kts
24-Nov-20 16:06 46.417518 -120.141965 300 31992ft 359kts
24-Nov-20 16:07 46.481607 -120.251966 298 31990ft 355kts
24-Nov-20 16:08 46.542466 -120.359092 297 31171ft 327kts
24-Nov-20 16:09 46.596582 -120.458157 293 30033ft 302kts
24-Nov-20 16:11 46.644710 -120.554485 292 28990ft 286kts
24-Nov-20 16:12 46.690514 -120.649358 292 27986ft 284kts
24-Nov-20 16:13 46.735116 -120.743305 291 26984ft 280kts
24-Nov-20 16:14 46.778805 -120.836423 291 25986ft 277kts
24-Nov-20 16:15 46.819374 -120.930593 285 24984ft 267kts
24-Nov-20 16:16 46.862741 -121.022655 294 23980ft 275kts
24-Nov-20 16:17 46.907306 -121.112861 292 22981ft 271kts
24-Nov-20 16:18 46.949701 -121.203190 292 21977ft 266kts
24-Nov-20 16:19 46.991190 -121.292544 292 20988ft 265kts
24-Nov-20 16:20 47.032310 -121.382090 292 19981ft 273kts
24-Nov-20 16:21 47.076824 -121.485441 291 18800ft 309kts
24-Nov-20 16:22 47.124469 -121.592813 295 17434ft 316kts
24-Nov-20 16:23 47.173649 -121.698909 294 15834ft 311kts
24-Nov-20 16:24 47.220835 -121.804287 295 14230ft 302kts
24-Nov-20 16:25 47.269415 -121.898945 296 12647ft 284kts
24-Nov-20 16:26 47.311083 -121.990016 293 12012ft 271kts
24-Nov-20 16:27 47.351913 -122.086284 292 12011ft 275kts
24-Nov-20 16:27 47.412995 -122.125813 352 12012ft 324kts
24-Nov-20 16:29 47.517934 -122.116255 358 10150ft 315kts
24-Nov-20 16:29 47.590470 -122.108453 358 7905ft 308kts
24-Nov-20 16:30 47.674158 -122.100986 359 5835ft 292kts
24-Nov-20 16:31 47.735520 -122.138490 284 5020ft 225kts
24-Nov-20 16:33 47.753089 -122.230530 276 3448ft 190kts
24-Nov-20 16:33 47.748011 -122.286119 213 3011ft 169kts
24-Nov-20 16:34 47.703545 -122.303242 185 3000ft 159kts
24-Nov-20 16:35 47.659996 -122.305611 183 2990ft 152kts
24-Nov-20 16:36 47.618187 -122.306456 182 2994ft 149kts
24-Nov-20 16:37 47.576692 -122.306741 182 2743ft 148kts
24-Nov-20 16:38 47.539723 -122.306995 183 1921ft 120kts
24-Nov-20 16:39 47.508074 -122.307231 185 1337ft 112kts
24-Nov-20 16:40 47.476485 -122.307600 183 735ft 113kts
24-Nov-20 16:41 47.449115 -122.307972 182 441ft 65kts
24-Nov-20 16:42 47.438976 -122.307019 74 441ft 10kts
24-Nov-20 16:43 47.437183 -122.303450 88 441ft 20kts
24-Nov-20 16:44 47.435088 -122.300179 181 441ft 1kts
24-Nov-20 16:45 47.435083 -122.300180 181 441ft 0kts

Navigation Log

Ident Type
Flight plan parsing failed, navigation log unavailable